Coburn, West Virginia
Current Conditions -  °F | °C
As of 3:53 PM on Friday 24 Oct 2014 (Local Time) from KMGW Reporting Station
Clear Clear  
Wind Chill: 62°   Ceiling: Unl
Heat Index: 62°   Visibility: 10mi
Dew Point: 39°   Wind: 0mph
Humidity: 43%   Direction: NA
Pressure: 30.03"   Gusts: NA
Location:  39.6697°N, 80.398°W
Report Text: KMGW 241953Z 00000KT 10SM CLR 17/04 A3003 RMK AO2 SLP169 T01670039
Loading
Personal Weather Stations






























Interactive Weather Map
Tropical Storm Tracking
New forecast layout! Learn more

10-Day Weather Forecast

Advertisements
Track Severe Weather on mobile